Time;durP1;ratioP1;P1;durP2;ratioP2;P2;SDS_P1;SDS_P2;PMS_P1;PMS_P2;Temp;Humidity;BMP_temperature;BMP_pressure;BME280_temperature;BME280_humidity;BME280_pressure;Samples;Min_cycle;Max_cycle;Signal;HPM_P1;HPM_P2
2020/12/04 00:01:25;;;;;;;16.38;12.60;;;3.80;99.90;;;;;;4990538;28;20436;-71
2020/12/04 00:03:51;;;;;;;19.63;14.65;;;3.60;99.90;;;;;;4993478;28;20034;-72
2020/12/04 00:06:16;;;;;;;15.25;12.13;;;3.40;99.90;;;;;;4999770;28;20474;-72
2020/12/04 00:08:42;;;;;;;17.33;11.95;;;3.30;99.90;;;;;;5008492;28;20097;-73
2020/12/04 00:11:07;;;;;;;16.05;11.13;;;3.30;99.90;;;;;;5007779;28;20018;-72
2020/12/04 00:13:33;;;;;;;21.95;11.05;;;3.60;99.90;;;;;;5007647;28;20176;-71
2020/12/04 00:16:00;;;;;;;25.98;13.98;;;3.60;99.90;;;;;;5001022;28;20058;-71
2020/12/04 00:18:25;;;;;;;17.15;11.13;;;3.80;99.90;;;;;;4995485;28;20046;-71
2020/12/04 00:20:51;;;;;;;12.50;10.15;;;4.00;99.90;;;;;;5011347;28;20112;-71
2020/12/04 00:23:16;;;;;;;19.50;12.27;;;4.00;99.90;;;;;;5021583;28;20162;-71
2020/12/04 00:25:42;;;;;;;16.38;11.80;;;3.80;99.90;;;;;;5022694;28;20018;-71
2020/12/04 00:28:07;;;;;;;16.25;12.07;;;3.90;99.90;;;;;;5023085;28;20098;-71
2020/12/04 00:30:33;;;;;;;17.40;12.32;;;3.60;99.90;;;;;;5017928;28;20026;-71
2020/12/04 00:32:58;;;;;;;17.38;12.43;;;3.50;99.90;;;;;;5021235;28;20034;-73
2020/12/04 00:35:24;;;;;;;17.58;13.07;;;3.40;99.90;;;;;;5009622;28;20124;-71
2020/12/04 00:37:50;;;;;;;16.00;12.13;;;3.50;99.90;;;;;;5020342;28;20094;-71
2020/12/04 00:40:15;;;;;;;17.23;12.57;;;3.40;99.90;;;;;;5017168;28;20072;-72
2020/12/04 00:42:45;;;;;;;14.43;11.65;;;3.40;99.90;;;;;;5016590;28;20386;-72
2020/12/04 00:45:11;;;;;;;18.15;13.48;;;3.30;99.90;;;;;;5015624;28;20651;-72
2020/12/04 00:47:36;;;;;;;17.60;12.15;;;3.30;99.90;;;;;;5016941;28;20041;-71
2020/12/04 00:50:02;;;;;;;16.42;12.43;;;3.50;99.90;;;;;;5016726;28;20105;-71
2020/12/04 00:52:31;;;;;;;16.98;12.30;;;3.70;99.90;;;;;;5013560;28;20049;-70
2020/12/04 00:54:57;;;;;;;17.13;12.73;;;3.70;99.90;;;;;;4988055;28;20023;-71
2020/12/04 00:57:22;;;;;;;17.67;11.30;;;3.70;99.90;;;;;;5005508;28;20524;-71
2020/12/04 00:59:48;;;;;;;17.05;12.95;;;3.50;99.90;;;;;;4999729;28;20390;-71
2020/12/04 01:02:13;;;;;;;14.82;11.82;;;3.40;99.90;;;;;;5003971;28;20026;-72
2020/12/04 01:04:39;;;;;;;15.18;11.30;;;3.40;99.90;;;;;;4995809;28;20034;-72
2020/12/04 01:07:05;;;;;;;14.27;10.80;;;3.40;99.90;;;;;;5002000;28;20022;-71
2020/12/04 01:09:34;;;;;;;16.02;10.82;;;3.50;99.90;;;;;;5010037;28;20073;-71
2020/12/04 01:11:59;;;;;;;15.93;12.13;;;3.60;99.90;;;;;;4993856;28;20037;-70
2020/12/04 01:14:26;;;;;;;15.27;11.73;;;3.50;99.90;;;;;;5004169;28;20033;-72
2020/12/04 01:16:52;;;;;;;17.73;12.55;;;3.40;99.90;;;;;;5005705;28;20418;-71
2020/12/04 01:19:17;;;;;;;16.25;12.57;;;3.50;99.90;;;;;;5001866;28;20037;-72
2020/12/04 01:21:45;;;;;;;17.85;14.40;;;3.50;99.90;;;;;;5000198;28;20034;-71
2020/12/04 01:24:11;;;;;;;16.30;11.48;;;3.60;99.90;;;;;;5008365;28;20030;-71
2020/12/04 01:26:39;;;;;;;14.90;11.93;;;3.70;99.90;;;;;;5007384;28;20030;-74
2020/12/04 01:29:05;;;;;;;17.02;11.60;;;3.60;99.90;;;;;;5022123;28;20036;-71
2020/12/04 01:31:30;;;;;;;17.75;11.82;;;3.50;99.90;;;;;;5011794;28;20053;-71
2020/12/04 01:33:59;;;;;;;15.38;11.45;;;3.50;99.90;;;;;;5001728;28;20084;-72
2020/12/04 01:36:28;;;;;;;14.48;10.82;;;3.60;99.90;;;;;;5014289;28;20014;-71
2020/12/04 01:38:54;;;;;;;14.15;11.02;;;3.50;99.90;;;;;;5007905;28;20027;-71
2020/12/04 01:41:20;;;;;;;17.67;11.70;;;3.50;99.90;;;;;;5010449;28;20034;-71
2020/12/04 01:43:45;;;;;;;13.68;10.85;;;3.40;99.90;;;;;;5001828;28;20034;-72
2020/12/04 01:46:13;;;;;;;14.55;12.35;;;3.40;99.90;;;;;;5000731;28;20022;-72
2020/12/04 01:48:39;;;;;;;16.90;12.32;;;3.40;99.90;;;;;;5001220;28;20038;-71
2020/12/04 01:51:05;;;;;;;17.48;12.18;;;3.40;99.90;;;;;;5002525;28;20153;-71
2020/12/04 01:53:30;;;;;;;17.42;11.82;;;3.40;99.90;;;;;;4997768;28;20022;-72
2020/12/04 01:55:56;;;;;;;15.55;11.27;;;3.40;99.90;;;;;;4995963;28;20022;-71
2020/12/04 01:58:22;;;;;;;14.85;11.80;;;3.40;99.90;;;;;;5007967;28;20123;-72
2020/12/04 02:00:47;;;;;;;20.10;11.93;;;3.40;99.90;;;;;;5001361;28;20026;-71
2020/12/04 02:03:14;;;;;;;17.02;11.65;;;3.40;99.90;;;;;;5008369;28;20117;-71
2020/12/04 02:05:48;;;;;;;16.77;11.60;;;3.40;99.90;;;;;;5009941;28;20130;-72
2020/12/04 02:08:17;;;;;;;14.27;11.65;;;3.50;99.90;;;;;;5001765;28;20086;-71
2020/12/04 02:11:10;;;;;;;15.63;12.07;;;3.50;99.90;;;;;;5008050;28;20025;-71
2020/12/04 02:13:38;;;;;;;14.60;12.07;;;3.70;99.90;;;;;;5023856;28;20045;-71
2020/12/04 02:16:04;;;;;;;13.93;11.50;;;3.60;99.90;;;;;;5014617;28;20032;-73
2020/12/04 02:18:29;;;;;;;17.35;12.82;;;3.70;99.90;;;;;;4994786;28;20061;-72
2020/12/04 02:21:01;;;;;;;17.48;13.30;;;3.60;99.90;;;;;;4991209;28;20033;-73
2020/12/04 02:23:27;;;;;;;16.40;12.38;;;3.60;99.90;;;;;;4974864;28;20030;-70
2020/12/04 02:25:56;;;;;;;17.90;12.85;;;3.50;99.90;;;;;;4991254;28;20540;-71
2020/12/04 02:28:51;;;;;;;17.73;13.10;;;3.40;99.90;;;;;;5001709;28;20100;-72
2020/12/04 02:31:16;;;;;;;18.60;12.98;;;3.40;99.90;;;;;;4985954;28;20056;-72
2020/12/04 02:33:43;;;;;;;17.73;13.77;;;3.40;99.90;;;;;;5007524;28;20026;-71
2020/12/04 02:36:09;;;;;;;18.45;13.15;;;3.40;99.90;;;;;;4997375;28;20393;-71
2020/12/04 02:38:35;;;;;;;18.00;12.15;;;3.40;99.90;;;;;;5009411;28;20037;-72
2020/12/04 02:41:01;;;;;;;19.83;12.68;;;3.40;99.90;;;;;;5014707;28;20089;-71
2020/12/04 02:43:27;;;;;;;19.67;11.68;;;3.40;99.90;;;;;;5020105;28;20037;-71
2020/12/04 02:45:53;;;;;;;17.02;12.90;;;3.40;99.90;;;;;;5023691;28;20050;-72
2020/12/04 02:48:18;;;;;;;17.63;13.45;;;3.30;99.90;;;;;;4999212;28;20069;-71
2020/12/04 02:50:44;;;;;;;17.38;12.90;;;3.40;99.90;;;;;;5018770;28;20053;-71
2020/12/04 02:53:10;;;;;;;16.65;12.25;;;3.30;99.90;;;;;;5020141;28;20030;-71
2020/12/04 02:55:36;;;;;;;17.98;13.40;;;3.40;99.90;;;;;;5031684;28;20028;-72
2020/12/04 02:58:01;;;;;;;18.38;12.50;;;3.40;99.90;;;;;;5008333;28;20018;-72
2020/12/04 03:00:28;;;;;;;19.48;13.40;;;3.40;99.90;;;;;;4999144;28;20034;-71
2020/12/04 03:02:53;;;;;;;14.60;11.13;;;3.40;99.90;;;;;;5004603;28;20445;-73
2020/12/04 03:05:19;;;;;;;16.80;12.00;;;3.40;99.90;;;;;;5001666;28;20109;-72
2020/12/04 03:07:44;;;;;;;20.40;13.02;;;3.40;99.90;;;;;;5004724;28;20034;-72
2020/12/04 03:10:10;;;;;;;14.50;11.43;;;3.40;99.90;;;;;;5005391;28;20389;-72
2020/12/04 03:12:40;;;;;;;16.10;12.52;;;3.40;99.90;;;;;;5011648;28;20026;-71
2020/12/04 03:15:06;;;;;;;14.85;12.20;;;3.40;99.90;;;;;;4998831;28;20091;-72
2020/12/04 03:17:32;;;;;;;14.10;11.40;;;3.40;99.90;;;;;;5001590;28;20026;-72
2020/12/04 03:19:58;;;;;;;15.85;11.63;;;3.40;99.90;;;;;;4996284;28;20118;-71
2020/12/04 03:22:25;;;;;;;24.30;12.48;;;3.40;99.90;;;;;;5007576;28;20030;-72
2020/12/04 03:24:51;;;;;;;24.17;13.43;;;3.40;99.90;;;;;;4997590;28;20037;-72
2020/12/04 03:27:17;;;;;;;26.40;13.13;;;3.40;99.90;;;;;;5001440;28;20026;-73
2020/12/04 03:29:42;;;;;;;25.67;12.48;;;3.50;99.90;;;;;;5001813;28;20022;-72
2020/12/04 03:32:08;;;;;;;20.60;11.85;;;3.50;99.90;;;;;;5009986;28;20026;-72
2020/12/04 03:34:34;;;;;;;20.92;13.25;;;3.50;99.90;;;;;;4999230;28;20037;-72
2020/12/04 03:37:00;;;;;;;16.40;11.85;;;3.40;99.90;;;;;;5010751;28;20493;-73
2020/12/04 03:39:25;;;;;;;17.33;11.02;;;3.40;99.90;;;;;;4999433;28;20040;-73
2020/12/04 03:41:51;;;;;;;16.73;13.00;;;3.50;99.90;;;;;;5008864;28;20026;-71
2020/12/04 03:44:17;;;;;;;18.00;11.07;;;3.50;99.90;;;;;;5009724;28;20122;-73
2020/12/04 03:46:47;;;;;;;17.95;11.65;;;3.50;99.90;;;;;;4998549;28;20034;-71
2020/12/04 03:49:13;;;;;;;14.33;10.97;;;3.50;99.90;;;;;;4996960;28;20033;-71
2020/12/04 03:51:43;;;;;;;16.02;11.82;;;3.50;99.90;;;;;;5009431;28;20054;-72
2020/12/04 03:54:15;;;;;;;16.83;12.23;;;3.30;99.90;;;;;;5002663;28;20134;-74
2020/12/04 03:56:41;;;;;;;15.10;11.30;;;3.30;99.90;;;;;;5019254;28;20189;-72
2020/12/04 03:59:07;;;;;;;16.60;11.80;;;3.30;99.90;;;;;;5006777;28;20030;-71
2020/12/04 04:01:33;;;;;;;13.13;9.90;;;3.30;99.90;;;;;;5015559;28;20043;-71
2020/12/04 04:03:58;;;;;;;16.40;11.25;;;3.30;99.90;;;;;;5007571;28;20114;-71
2020/12/04 04:06:25;;;;;;;20.00;13.15;;;3.40;99.90;;;;;;5013745;28;20054;-72
2020/12/04 04:08:51;;;;;;;13.90;11.10;;;3.40;99.90;;;;;;4997284;28;20363;-72
2020/12/04 04:11:16;;;;;;;13.70;10.48;;;3.50;99.90;;;;;;5009992;28;20116;-72
2020/12/04 04:13:42;;;;;;;13.98;10.73;;;3.50;99.90;;;;;;5005825;28;20021;-71
2020/12/04 04:16:07;;;;;;;14.93;10.82;;;3.70;99.90;;;;;;5005780;28;20069;-71
2020/12/04 04:18:33;;;;;;;15.77;11.43;;;3.70;99.90;;;;;;5008713;28;20026;-71
2020/12/04 04:21:00;;;;;;;18.92;11.10;;;3.70;99.90;;;;;;5004652;28;20080;-72
2020/12/04 04:23:26;;;;;;;18.20;12.10;;;3.80;99.90;;;;;;5006380;28;20026;-72
2020/12/04 04:25:51;;;;;;;20.00;11.30;;;3.60;99.90;;;;;;5005329;28;20029;-73
2020/12/04 04:28:17;;;;;;;21.90;11.85;;;3.60;99.90;;;;;;5006416;28;20030;-72
2020/12/04 04:30:43;;;;;;;20.08;12.63;;;3.70;99.90;;;;;;5007647;28;20117;-72
2020/12/04 04:33:08;;;;;;;19.65;11.85;;;3.60;99.90;;;;;;5000117;28;20177;-71
2020/12/04 04:35:34;;;;;;;27.85;12.13;;;3.60;99.90;;;;;;4998403;28;20446;-72
2020/12/04 04:38:00;;;;;;;20.40;12.50;;;3.60;99.90;;;;;;4996572;28;20109;-71
2020/12/04 04:40:26;;;;;;;19.83;11.95;;;3.60;99.90;;;;;;5007163;28;20026;-73
2020/12/04 04:43:11;;;;;;;23.58;13.65;;;3.80;99.90;;;;;;5002621;28;20038;-73
2020/12/04 04:45:45;;;;;;;20.83;13.60;;;3.70;99.90;;;;;;5011777;28;20041;-71
2020/12/04 04:48:15;;;;;;;23.70;13.98;;;3.60;99.90;;;;;;4996501;28;20022;-71
2020/12/04 04:50:43;;;;;;;19.80;14.20;;;3.50;99.90;;;;;;5007877;28;20033;-72
2020/12/04 04:53:09;;;;;;;19.25;14.23;;;3.60;99.90;;;;;;5005038;28;20562;-72
2020/12/04 04:55:36;;;;;;;23.67;14.55;;;3.60;99.90;;;;;;5014440;28;20409;-72
2020/12/04 04:58:05;;;;;;;20.25;14.00;;;3.80;99.90;;;;;;5013736;28;20070;-72
2020/12/04 05:00:31;;;;;;;20.98;13.25;;;3.80;99.90;;;;;;5024927;28;20068;-71
2020/12/04 05:02:57;;;;;;;20.65;14.25;;;3.70;99.90;;;;;;5026218;28;20030;-72
2020/12/04 05:05:42;;;;;;;20.20;14.05;;;3.80;99.90;;;;;;5022290;28;20041;-72
2020/12/04 05:08:26;;;;;;;19.65;13.10;;;3.70;99.90;;;;;;5021902;28;20101;-71
2020/12/04 05:11:07;;;;;;;20.55;14.10;;;3.80;99.90;;;;;;4992429;28;20034;-72
2020/12/04 05:13:32;;;;;;;;;;;4.00;99.90;;;;;;5005583;28;20049;-72
2020/12/04 05:15:58;;;;;;;19.70;13.48;;;4.10;99.90;;;;;;5008809;28;20328;-72
2020/12/04 05:18:23;;;;;;;29.00;13.48;;;4.00;99.90;;;;;;4995595;28;20106;-71
2020/12/04 05:20:56;;;;;;;18.50;14.05;;;3.80;99.90;;;;;;5008629;28;20080;-72
2020/12/04 05:23:23;;;;;;;18.50;13.85;;;3.80;99.90;;;;;;4998760;28;20040;-72
2020/12/04 05:25:51;;;;;;;19.67;13.18;;;3.70;99.90;;;;;;5007593;28;20076;-71
2020/12/04 05:28:19;;;;;;;18.35;12.48;;;3.80;99.90;;;;;;5013619;28;20034;-71
2020/12/04 05:30:47;;;;;;;23.40;14.75;;;3.70;99.90;;;;;;5003822;28;20033;-72
2020/12/04 05:33:13;;;;;;;19.80;13.52;;;3.70;99.90;;;;;;5010358;28;20022;-71
2020/12/04 05:35:40;;;;;;;23.85;12.77;;;3.80;99.90;;;;;;5007014;28;20030;-73
2020/12/04 05:38:17;;;;;;;23.67;13.13;;;3.70;99.90;;;;;;4998416;28;20065;-71
2020/12/04 05:40:50;;;;;;;21.50;14.68;;;3.70;99.90;;;;;;4977186;28;20026;-72
2020/12/04 05:43:36;;;;;;;21.30;12.65;;;3.70;99.90;;;;;;4977318;28;20027;-72
2020/12/04 05:46:21;;;;;;;25.13;13.48;;;3.70;99.90;;;;;;4995711;28;20031;-73
2020/12/04 05:49:07;;;;;;;25.67;13.15;;;3.90;99.90;;;;;;4992544;28;20060;-73
2020/12/04 05:51:34;;;;;;;20.83;12.52;;;4.10;99.90;;;;;;5001846;28;20059;-72
2020/12/04 05:54:02;;;;;;;19.73;13.38;;;3.90;99.90;;;;;;4995011;28;20041;-71
2020/12/04 05:56:27;;;;;;;31.95;14.93;;;3.80;99.90;;;;;;4997578;28;20030;-72
2020/12/04 05:58:55;;;;;;;20.27;12.95;;;3.70;99.90;;;;;;4999514;28;20042;-72
2020/12/04 06:01:22;;;;;;;24.23;13.88;;;3.70;99.90;;;;;;5009180;28;20060;-74
2020/12/04 06:03:53;;;;;;;30.25;13.60;;;3.70;99.90;;;;;;5010595;28;20035;-72
2020/12/04 06:06:29;;;;;;;32.50;12.77;;;3.70;99.90;;;;;;5003724;28;20030;-72
2020/12/04 06:09:06;;;;;;;22.85;12.82;;;3.90;99.90;;;;;;5002792;28;20117;-72
2020/12/04 06:11:38;;;;;;;22.27;13.00;;;3.90;99.90;;;;;;5003210;28;20394;-71
2020/12/04 06:14:14;;;;;;;23.65;11.10;;;3.90;99.90;;;;;;5004738;28;20022;-71
2020/12/04 06:16:40;;;;;;;18.67;11.60;;;4.00;99.90;;;;;;4998844;28;20036;-72
2020/12/04 06:19:26;;;;;;;16.58;11.73;;;4.10;99.90;;;;;;5012567;28;20037;-72
2020/12/04 06:21:51;;;;;;;19.38;11.57;;;4.10;99.90;;;;;;5007318;28;20042;-73
2020/12/04 06:24:17;;;;;;;17.33;12.43;;;4.10;99.90;;;;;;4994265;28;20562;-73
2020/12/04 06:26:47;;;;;;;20.45;12.82;;;4.30;99.90;;;;;;5011273;28;20053;-71
2020/12/04 06:29:13;;;;;;;21.90;11.35;;;4.40;99.90;;;;;;5002236;28;20037;-72
2020/12/04 06:31:39;;;;;;;26.25;11.73;;;4.40;99.90;;;;;;5007797;28;20414;-71
2020/12/04 06:34:21;;;;;;;18.20;10.27;;;4.20;99.90;;;;;;5001455;28;20490;-71
2020/12/04 06:36:48;;;;;;;18.05;10.30;;;4.20;99.90;;;;;;5006218;28;20498;-72
2020/12/04 06:39:31;;;;;;;16.58;10.55;;;4.10;99.90;;;;;;5008833;28;20038;-72
2020/12/04 06:41:58;;;;;;;19.17;9.70;;;4.20;99.90;;;;;;4983566;28;20037;-73
2020/12/04 06:44:25;;;;;;;17.25;8.45;;;4.30;99.90;;;;;;5008992;28;20504;-72
2020/12/04 06:46:53;;;;;;;17.88;9.35;;;4.50;99.90;;;;;;5006453;28;20482;-71
2020/12/04 06:49:35;;;;;;;12.68;9.70;;;4.60;99.90;;;;;;5006508;28;20394;-72
2020/12/04 06:52:04;;;;;;;12.40;8.02;;;4.50;99.90;;;;;;5001578;28;20091;-71
2020/12/04 06:54:32;;;;;;;12.95;9.13;;;4.60;99.90;;;;;;4996298;28;20078;-71
2020/12/04 06:56:58;;;;;;;17.75;8.50;;;4.50;99.90;;;;;;5006319;28;20502;-73
2020/12/04 06:59:32;;;;;;;15.15;9.82;;;4.40;99.90;;;;;;5000423;28;20054;-71
2020/12/04 07:02:00;;;;;;;12.45;8.75;;;4.40;99.90;;;;;;5009094;28;20029;-72
2020/12/04 07:04:28;;;;;;;17.98;9.70;;;4.40;99.90;;;;;;5009900;28;20038;-72
2020/12/04 07:07:11;;;;;;;12.10;9.10;;;4.80;99.90;;;;;;5000610;28;20061;-72
2020/12/04 07:09:38;;;;;;;19.35;9.75;;;4.70;99.90;;;;;;5013505;28;20093;-72
2020/12/04 07:12:04;;;;;;;14.93;10.52;;;4.60;99.90;;;;;;5018538;28;20030;-72
2020/12/04 07:14:31;;;;;;;12.18;9.27;;;4.40;99.90;;;;;;5024490;28;20026;-72
2020/12/04 07:16:57;;;;;;;13.80;9.02;;;4.40;99.90;;;;;;5012805;28;20105;-71
2020/12/04 07:19:23;;;;;;;41.50;11.20;;;4.40;99.90;;;;;;5003176;28;20076;-72
2020/12/04 07:21:50;;;;;;;14.40;8.82;;;4.50;99.90;;;;;;4999244;28;20038;-71
2020/12/04 07:24:16;;;;;;;12.82;9.30;;;4.60;99.90;;;;;;5003314;28;20040;-73
2020/12/04 07:26:53;;;;;;;21.70;9.57;;;4.60;99.90;;;;;;5000419;28;20031;-72
2020/12/04 07:29:19;;;;;;;16.42;9.93;;;4.60;99.90;;;;;;5009101;28;20034;-73
2020/12/04 07:31:47;;;;;;;17.77;10.15;;;4.50;99.90;;;;;;5002864;28;20088;-73
2020/12/04 07:34:17;;;;;;;17.02;9.80;;;4.50;99.90;;;;;;5002551;28;20106;-73
2020/12/04 07:36:51;;;;;;;13.77;10.23;;;4.60;99.90;;;;;;5014184;28;20026;-72
2020/12/04 07:39:32;;;;;;;14.77;9.23;;;4.90;99.90;;;;;;5003291;28;20033;-72
2020/12/04 07:41:59;;;;;;;17.40;9.70;;;4.80;99.90;;;;;;4998869;28;20117;-72
2020/12/04 07:44:29;;;;;;;13.98;8.38;;;4.70;99.90;;;;;;4998608;28;20528;-72
2020/12/04 07:47:21;;;;;;;12.90;8.80;;;4.60;99.90;;;;;;4993037;28;20046;-71
2020/12/04 07:49:51;;;;;;;16.65;9.27;;;4.50;99.90;;;;;;4996754;28;20505;-71
2020/12/04 07:52:28;;;;;;;15.85;9.20;;;4.50;99.90;;;;;;5008335;28;20489;-71
2020/12/04 07:55:00;;;;;;;13.18;11.02;;;5.00;99.90;;;;;;5001034;28;20029;-72
2020/12/04 07:57:32;;;;;;;14.05;9.52;;;5.10;99.90;;;;;;5004561;28;20053;-72
2020/12/04 07:59:59;;;;;;;14.40;10.88;;;5.20;99.90;;;;;;4996915;28;20080;-71
2020/12/04 08:02:26;;;;;;;14.63;10.25;;;5.10;99.90;;;;;;5008422;28;20034;-72
2020/12/04 08:04:52;;;;;;;15.93;9.73;;;4.80;99.90;;;;;;5003827;28;20038;-71
2020/12/04 08:07:18;;;;;;;14.32;11.25;;;4.60;99.90;;;;;;5004914;28;20034;-71
2020/12/04 08:09:46;;;;;;;15.10;10.27;;;4.50;99.90;;;;;;5002850;28;20113;-72
2020/12/04 08:12:15;;;;;;;13.82;10.48;;;4.50;99.90;;;;;;5008436;28;20049;-72
2020/12/04 08:14:53;;;;;;;13.90;10.48;;;4.50;99.90;;;;;;5016218;28;20417;-73
2020/12/04 08:17:20;;;;;;;13.05;10.00;;;4.70;99.90;;;;;;4998967;28;20029;-72
2020/12/04 08:19:46;;;;;;;21.50;12.50;;;4.90;99.90;;;;;;5002565;28;20418;-72
2020/12/04 08:22:11;;;;;;;15.05;10.20;;;4.70;99.90;;;;;;5010925;28;20065;-71
2020/12/04 08:24:49;;;;;;;16.55;11.13;;;4.80;99.90;;;;;;5006802;28;20113;-71
2020/12/04 08:27:15;;;;;;;15.05;10.30;;;4.70;99.90;;;;;;5013224;28;20030;-71
2020/12/04 08:30:00;;;;;;;14.63;10.48;;;4.90;99.90;;;;;;5007756;28;20434;-71
2020/12/04 08:32:26;;;;;;;13.60;10.15;;;4.70;99.90;;;;;;5003495;28;20025;-72
2020/12/04 08:35:05;;;;;;;17.95;10.85;;;5.00;99.90;;;;;;4996821;28;20402;-73
2020/12/04 08:37:30;;;;;;;19.83;10.60;;;5.10;99.90;;;;;;5002015;28;20029;-72
2020/12/04 08:39:56;;;;;;;17.13;9.85;;;5.10;99.90;;;;;;4995066;28;20097;-72
2020/12/04 08:42:32;;;;;;;17.73;11.60;;;4.90;99.90;;;;;;4996521;28;20026;-72
2020/12/04 08:45:04;;;;;;;15.75;10.05;;;5.00;99.90;;;;;;5015191;28;20541;-72
2020/12/04 08:47:31;;;;;;;21.50;12.20;;;5.00;99.90;;;;;;5002213;28;20026;-71
2020/12/04 08:49:57;;;;;;;18.95;11.05;;;5.30;99.90;;;;;;5003282;28;20365;-72
2020/12/04 08:52:49;;;;;;;15.30;10.65;;;5.50;99.90;;;;;;5016499;28;20022;-72
2020/12/04 08:55:20;;;;;;;19.00;11.07;;;5.20;99.90;;;;;;5007716;28;20030;-71
2020/12/04 08:57:47;;;;;;;18.20;11.07;;;5.30;99.90;;;;;;5003682;28;20113;-73
2020/12/04 09:00:16;;;;;;;22.50;11.75;;;5.60;99.90;;;;;;5000359;28;20641;-71
2020/12/04 09:02:42;;;;;;;15.35;11.32;;;5.80;99.90;;;;;;5003169;28;20033;-72
2020/12/04 09:05:10;;;;;;;20.50;12.13;;;5.90;99.90;;;;;;5007893;28;20103;-72
2020/12/04 09:07:37;;;;;;;17.98;11.25;;;5.90;99.90;;;;;;5014082;28;20030;-72
2020/12/04 09:10:04;;;;;;;23.48;12.18;;;6.10;99.90;;;;;;5012773;28;20026;-72
2020/12/04 09:12:30;;;;;;;20.25;12.52;;;5.80;99.90;;;;;;5013229;28;20034;-73
2020/12/04 09:14:55;;;;;;;18.02;11.40;;;5.50;99.90;;;;;;5000804;28;20026;-74
2020/12/04 09:17:21;;;;;;;20.83;11.10;;;5.50;99.90;;;;;;5009405;28;20045;-71
2020/12/04 09:19:47;;;;;;;20.15;11.82;;;5.60;99.90;;;;;;4997963;28;20125;-71
2020/12/04 09:22:14;;;;;;;23.83;13.05;;;5.50;99.90;;;;;;5018458;28;20120;-71
2020/12/04 09:24:40;;;;;;;25.00;11.45;;;5.50;99.90;;;;;;5015250;28;20026;-71
2020/12/04 09:27:05;;;;;;;16.25;10.48;;;5.50;99.90;;;;;;5017626;28;20093;-71
2020/12/04 09:29:31;;;;;;;15.68;10.65;;;5.60;99.90;;;;;;5012499;28;20031;-71
2020/12/04 09:31:57;;;;;;;15.95;10.80;;;5.70;99.90;;;;;;5003970;28;20030;-72
2020/12/04 09:34:22;;;;;;;18.60;11.45;;;5.70;99.90;;;;;;5015466;28;20080;-72
2020/12/04 09:36:51;;;;;;;16.88;10.80;;;5.70;99.90;;;;;;5013840;28;20026;-72
2020/12/04 09:39:18;;;;;;;21.83;11.93;;;5.80;99.90;;;;;;5001368;28;20398;-72
2020/12/04 09:41:44;;;;;;;18.02;10.57;;;5.90;99.90;;;;;;5009575;28;20042;-73
2020/12/04 09:44:10;;;;;;;18.50;10.52;;;6.20;99.90;;;;;;5000753;28;20038;-72
2020/12/04 09:46:35;;;;;;;19.90;11.60;;;6.40;99.90;;;;;;5012465;28;20029;-72
2020/12/04 09:49:01;;;;;;;22.55;11.55;;;6.20;99.90;;;;;;5012247;28;20029;-72
2020/12/04 09:51:27;;;;;;;19.98;11.60;;;6.10;99.90;;;;;;5008701;28;20026;-72
2020/12/04 09:53:52;;;;;;;21.83;11.85;;;6.00;99.90;;;;;;4997236;28;20398;-71
2020/12/04 09:56:18;;;;;;;18.52;11.43;;;6.00;99.90;;;;;;5004529;28;20088;-72
2020/12/04 09:58:44;;;;;;;20.73;10.57;;;6.40;99.90;;;;;;5014904;28;20053;-73
2020/12/04 10:01:12;;;;;;;21.75;12.07;;;6.70;99.90;;;;;;5010002;28;20440;-72
2020/12/04 10:03:38;;;;;;;24.75;12.32;;;6.80;99.90;;;;;;4997757;28;20508;-73
2020/12/04 10:06:03;;;;;;;18.38;12.35;;;6.90;99.90;;;;;;5009867;28;20018;-73
2020/12/04 10:08:29;;;;;;;18.70;12.23;;;6.80;99.90;;;;;;4994262;28;20042;-72
2020/12/04 10:10:54;;;;;;;21.65;11.05;;;6.70;99.90;;;;;;5010167;28;20093;-72
2020/12/04 10:13:20;;;;;;;15.88;10.95;;;6.60;99.90;;;;;;5004574;28;20027;-72
2020/12/04 10:15:45;;;;;;;16.67;9.85;;;6.20;99.90;;;;;;4999050;28;20038;-72
2020/12/04 10:18:12;;;;;;;17.75;9.85;;;5.90;99.90;;;;;;5001031;28;20041;-72
2020/12/04 10:20:38;;;;;;;16.25;10.98;;;5.90;99.90;;;;;;5009037;28;20106;-72
2020/12/04 10:23:04;;;;;;;16.27;10.80;;;5.80;99.90;;;;;;5002244;28;20037;-72
2020/12/04 10:25:29;;;;;;;14.40;10.15;;;5.80;99.90;;;;;;5009555;28;20460;-72
2020/12/04 10:27:55;;;;;;;15.88;10.05;;;6.00;99.90;;;;;;5002715;28;20561;-72
2020/12/04 10:30:21;;;;;;;14.82;10.75;;;6.20;99.90;;;;;;4995630;28;20094;-71
2020/12/04 10:32:46;;;;;;;15.93;11.48;;;6.00;99.90;;;;;;5003670;28;20028;-73
2020/12/04 10:35:12;;;;;;;17.17;10.43;;;5.80;99.90;;;;;;5002079;28;20026;-72
2020/12/04 10:37:37;;;;;;;16.63;11.13;;;5.80;99.90;;;;;;4996731;28;20462;-71
2020/12/04 10:40:03;;;;;;;18.63;10.05;;;6.10;99.90;;;;;;4997505;28;20458;-71
2020/12/04 10:42:29;;;;;;;16.40;11.00;;;6.20;99.90;;;;;;4999282;28;20068;-73
2020/12/04 10:44:54;;;;;;;18.50;10.75;;;6.20;99.90;;;;;;5011317;28;20037;-72
2020/12/04 10:47:20;;;;;;;19.60;11.85;;;6.40;99.90;;;;;;4994925;28;20034;-72
2020/12/04 10:49:45;;;;;;;19.23;11.07;;;6.40;99.90;;;;;;5005842;28;20088;-72
2020/12/04 10:52:11;;;;;;;19.60;11.63;;;6.30;99.90;;;;;;5009759;28;20545;-72
2020/12/04 10:54:36;;;;;;;15.95;11.10;;;6.00;99.90;;;;;;5000704;28;20023;-72
2020/12/04 10:57:02;;;;;;;21.40;11.05;;;5.90;99.90;;;;;;4997084;28;20104;-72
2020/12/04 10:59:27;;;;;;;17.58;11.48;;;6.10;99.90;;;;;;4998151;28;20375;-72
2020/12/04 11:02:00;;;;;;;20.15;11.77;;;6.20;99.90;;;;;;5011174;28;20097;-72
2020/12/04 11:07:10;;;;;;;15.65;10.30;;;5.90;99.90;;;;;;5006390;28;20042;-73
2020/12/04 11:09:36;;;;;;;15.70;11.50;;;6.20;99.90;;;;;;4999873;28;20031;-76
2020/12/04 11:12:01;;;;;;;22.45;13.15;;;6.20;99.90;;;;;;5014923;28;20084;-72
2020/12/04 11:14:27;;;;;;;26.73;12.95;;;6.30;99.90;;;;;;5003667;28;20033;-73
2020/12/04 11:16:52;;;;;;;24.73;12.77;;;6.00;99.90;;;;;;5012780;28;20061;-72
2020/12/04 11:19:18;;;;;;;17.58;11.50;;;5.90;99.90;;;;;;5004523;28;20056;-72
2020/12/04 11:21:43;;;;;;;20.75;13.25;;;5.80;99.90;;;;;;5039822;23;20045;-71
2020/12/04 11:24:09;;;;;;;18.80;13.45;;;6.10;99.90;;;;;;5046962;28;20065;-69
2020/12/04 11:26:35;;;;;;;21.73;13.43;;;6.00;99.90;;;;;;5035816;28;20056;-69
2020/12/04 11:29:00;;;;;;;21.35;12.45;;;6.10;99.90;;;;;;5040733;28;20044;-69
2020/12/04 11:31:26;;;;;;;23.88;13.80;;;6.40;99.90;;;;;;5033947;28;20073;-69
2020/12/04 11:33:52;;;;;;;23.98;13.38;;;6.50;99.90;;;;;;5020113;28;20038;-70
2020/12/04 11:36:17;;;;;;;22.13;12.25;;;6.50;99.90;;;;;;5016614;28;20022;-69
2020/12/04 11:38:43;;;;;;;18.30;11.70;;;6.20;99.90;;;;;;5009297;28;20065;-71
2020/12/04 11:41:10;;;;;;;18.13;11.88;;;6.10;99.90;;;;;;5005843;28;20038;-71
2020/12/04 11:43:35;;;;;;;14.50;11.40;;;6.10;99.90;;;;;;5011644;28;20045;-70
2020/12/04 11:46:01;;;;;;;18.63;11.70;;;6.20;99.90;;;;;;5006466;28;20030;-70
2020/12/04 11:48:26;;;;;;;19.40;12.45;;;6.50;99.90;;;;;;5000683;28;20042;-70
2020/12/04 11:50:52;;;;;;;17.10;12.88;;;6.50;99.90;;;;;;4998831;28;20069;-69
2020/12/04 11:53:18;;;;;;;20.17;11.45;;;6.60;99.90;;;;;;5000884;28;20031;-69
2020/12/04 11:55:43;;;;;;;21.15;12.60;;;6.80;99.90;;;;;;4997823;28;20090;-69
2020/12/04 11:58:09;;;;;;;18.73;11.60;;;6.80;99.90;;;;;;5014546;28;20033;-69
2020/12/04 12:00:34;;;;;;;29.00;12.52;;;6.80;99.90;;;;;;5021304;28;20539;-69
2020/12/04 12:03:00;;;;;;;16.45;11.32;;;6.80;99.90;;;;;;5023981;28;20041;-68
2020/12/04 12:05:25;;;;;;;17.73;11.40;;;6.90;99.90;;;;;;4999928;28;20560;-69
2020/12/04 12:07:51;;;;;;;27.73;12.32;;;6.90;99.90;;;;;;4998958;28;20520;-69
2020/12/04 12:10:16;;;;;;;15.77;11.00;;;6.90;99.90;;;;;;4999748;28;20027;-70
2020/12/04 12:12:42;;;;;;;20.42;11.98;;;6.90;99.90;;;;;;5014508;28;20057;-69
2020/12/04 12:15:09;;;;;;;28.65;11.85;;;6.80;99.90;;;;;;5005252;28;20034;-70
2020/12/04 12:17:34;;;;;;;16.77;10.95;;;6.80;99.90;;;;;;5007106;28;20026;-70
2020/12/04 12:20:00;;;;;;;12.85;9.30;;;6.70;99.90;;;;;;4999506;28;20642;-70
2020/12/04 12:22:25;;;;;;;15.25;10.65;;;6.50;99.90;;;;;;5016621;28;20025;-70
2020/12/04 12:24:51;;;;;;;12.05;9.07;;;6.60;99.90;;;;;;5002910;28;20110;-69
2020/12/04 12:27:17;;;;;;;12.98;9.32;;;6.70;99.90;;;;;;5002477;28;20053;-68
2020/12/04 12:29:42;;;;;;;19.02;10.80;;;6.40;99.90;;;;;;5013530;28;20081;-68
2020/12/04 12:32:08;;;;;;;16.70;11.10;;;6.50;99.90;;;;;;5002599;28;20034;-70
2020/12/04 12:37:18;;;;;;;15.07;11.32;;;6.30;99.90;;;;;;5040324;28;20056;-70
2020/12/04 12:39:44;;;;;;;14.38;9.60;;;6.40;99.90;;;;;;5030815;28;20030;-68
2020/12/04 12:42:11;;;;;;;13.25;9.05;;;6.10;99.90;;;;;;5006528;28;20473;-71
2020/12/04 12:44:37;;;;;;;12.82;9.30;;;5.80;99.90;;;;;;5019802;28;20054;-70
2020/12/04 12:47:03;;;;;;;12.82;9.65;;;6.10;99.90;;;;;;5004465;28;20038;-71